Terminal Aerodrome Forecast
Issued by NWS Tiyan, Guam

Home | Current Version | Previous Version | Text Only | Print | Product List | Glossary On
Versions: 1 2 3 4 5 6 7 8 9 10 11 12 13 14 15 16 17 18 19 20 21 22 23 24 25 26 27 28 29 30 31 32 33
000
FTPQ31 PGUM 072329
TAFGUM
TAF
PGUM 072329Z 0800/0906 30010KT P6SM VCSH SCT018 SCT040 SCT120
     FM081800 28013KT P6SM VCSH SCT015 SCT030 BKN120
     FM090100 25015G22KT P6SM VCSH SCT015 BKN030 BKN120=

USA.gov is the U.S. government's official web portal to all federal, state and local government web resources and services.